Time;durP1;ratioP1;P1;durP2;ratioP2;P2;SDS_P1;SDS_P2;PMS_P1;PMS_P2;Temp;Humidity;BMP_temperature;BMP_pressure;BME280_temperature;BME280_humidity;BME280_pressure;Samples;Min_cycle;Max_cycle;Signal;HPM_P1;HPM_P2
2023/01/07 00:01:24;;;;;;;1.95;1.02;;;10.40;99.90;;;;;;5020451;28;20469;-81
2023/01/07 00:03:52;;;;;;;0.50;0.40;;;10.40;99.90;;;;;;5023128;28;20255;-82
2023/01/07 00:06:21;;;;;;;2.25;0.88;;;10.40;99.90;;;;;;5022865;28;20196;-82
2023/01/07 00:08:50;;;;;;;0.50;0.40;;;10.40;99.90;;;;;;5025509;28;20242;-80
2023/01/07 00:11:20;;;;;;;0.50;0.40;;;10.40;99.90;;;;;;5024325;28;20635;-81
2023/01/07 00:13:49;;;;;;;0.68;0.68;;;10.40;99.90;;;;;;5023775;28;20196;-83
2023/01/07 00:16:19;;;;;;;0.50;0.40;;;10.30;99.90;;;;;;5024935;28;20302;-82
2023/01/07 00:18:46;;;;;;;0.97;0.70;;;10.30;99.90;;;;;;5026600;28;20471;-82
2023/01/07 00:21:16;;;;;;;2.70;0.53;;;10.30;99.90;;;;;;5024985;28;20458;-79
2023/01/07 00:23:44;;;;;;;0.50;0.37;;;10.30;99.90;;;;;;5029282;28;20443;-81
2023/01/07 00:26:13;;;;;;;0.50;0.40;;;10.30;99.90;;;;;;5028147;28;20435;-83
2023/01/07 00:28:42;;;;;;;0.50;0.40;;;10.30;99.90;;;;;;5029536;28;20486;-84
2023/01/07 00:31:12;;;;;;;0.60;0.60;;;10.30;99.90;;;;;;5029173;28;20467;-82
2023/01/07 00:33:48;;;;;;;0.50;0.40;;;10.30;99.90;;;;;;5032356;28;20443;-84
2023/01/07 00:36:15;;;;;;;0.50;0.40;;;10.30;99.90;;;;;;5030219;28;20455;-83
2023/01/07 00:38:42;;;;;;;0.60;0.60;;;10.30;99.90;;;;;;5030547;28;20494;-83
2023/01/07 00:41:09;;;;;;;0.50;0.40;;;10.20;99.90;;;;;;5025457;28;20467;-82
2023/01/07 00:43:36;;;;;;;0.50;0.50;;;10.20;99.90;;;;;;5028711;28;20469;-81
2023/01/07 00:46:04;;;;;;;0.50;0.40;;;10.20;99.90;;;;;;5028962;28;20230;-84
2023/01/07 00:48:31;;;;;;;0.50;0.50;;;10.30;99.90;;;;;;5030359;28;20204;-81
2023/01/07 00:50:59;;;;;;;0.50;0.40;;;10.30;99.90;;;;;;5031336;28;20246;-83
2023/01/07 00:53:29;;;;;;;1.00;1.00;;;10.30;99.90;;;;;;5028596;28;20220;-82
2023/01/07 00:55:56;;;;;;;22.77;0.80;;;10.30;99.90;;;;;;5030575;28;20204;-83
2023/01/07 00:58:25;;;;;;;1.23;0.87;;;10.30;99.90;;;;;;5031772;28;20616;-81
2023/01/07 01:00:55;;;;;;;1.58;1.48;;;10.30;99.90;;;;;;5030743;28;20490;-81
2023/01/07 01:03:22;;;;;;;0.50;0.40;;;10.30;99.90;;;;;;5027609;28;20286;-80
2023/01/07 01:05:50;;;;;;;0.50;0.40;;;10.40;99.90;;;;;;5027397;28;20307;-83
2023/01/07 01:08:20;;;;;;;0.50;0.40;;;10.30;99.90;;;;;;5029196;28;20196;-82
2023/01/07 01:10:47;;;;;;;0.80;0.80;;;10.30;99.90;;;;;;5033093;28;20469;-83
2023/01/07 01:13:16;;;;;;;0.50;0.40;;;10.30;99.90;;;;;;5032596;28;20195;-83
2023/01/07 01:15:44;;;;;;;0.50;0.40;;;10.40;99.90;;;;;;5030832;28;20506;-84
2023/01/07 01:18:11;;;;;;;0.50;0.40;;;10.40;99.90;;;;;;5028277;28;20513;-82
2023/01/07 01:20:39;;;;;;;0.50;0.50;;;10.40;99.90;;;;;;5029726;28;20243;-82
2023/01/07 01:23:06;;;;;;;0.50;0.50;;;10.30;99.90;;;;;;5030198;28;20242;-83
2023/01/07 01:25:34;;;;;;;0.50;0.40;;;10.40;99.90;;;;;;5026572;28;20947;-81
2023/01/07 01:28:01;;;;;;;1.55;1.35;;;10.30;99.90;;;;;;5027896;28;20957;-82
2023/01/07 01:30:28;;;;;;;0.50;0.40;;;10.40;99.90;;;;;;5028990;28;20207;-82
2023/01/07 01:32:55;;;;;;;0.50;0.40;;;10.40;99.90;;;;;;5031073;28;20227;-81
2023/01/07 01:35:22;;;;;;;0.50;0.40;;;10.40;99.90;;;;;;5029767;28;20840;-82
2023/01/07 01:37:49;;;;;;;0.50;0.40;;;10.40;99.90;;;;;;5030983;28;20490;-84
2023/01/07 01:40:16;;;;;;;1.37;0.70;;;10.40;99.90;;;;;;5032172;28;20805;-80
2023/01/07 01:42:44;;;;;;;0.50;0.40;;;10.40;99.90;;;;;;5030949;28;20423;-84
2023/01/07 01:45:12;;;;;;;1.37;0.50;;;10.40;99.90;;;;;;5032260;28;20192;-84
2023/01/07 01:47:43;;;;;;;0.50;0.40;;;10.50;99.90;;;;;;5032204;28;20427;-82
2023/01/07 01:50:17;;;;;;;0.50;0.40;;;10.50;99.90;;;;;;5032819;28;20195;-84
2023/01/07 01:52:48;;;;;;;0.60;0.60;;;10.50;99.90;;;;;;5032886;28;20424;-83
2023/01/07 01:55:18;;;;;;;0.50;0.40;;;10.50;99.90;;;;;;5030057;28;20489;-82
2023/01/07 01:57:51;;;;;;;0.50;0.40;;;10.50;99.90;;;;;;5030423;28;20455;-82
2023/01/07 02:00:18;;;;;;;0.70;0.60;;;10.50;99.90;;;;;;5027257;28;20506;-84
2023/01/07 02:02:48;;;;;;;0.50;0.40;;;10.50;99.90;;;;;;5030546;28;20431;-82
2023/01/07 02:05:16;;;;;;;0.50;0.40;;;10.60;99.90;;;;;;5032290;28;20457;-84
2023/01/07 02:07:43;;;;;;;0.77;0.60;;;10.50;99.90;;;;;;5030715;28;20929;-82
2023/01/07 02:10:15;;;;;;;0.50;0.40;;;10.50;99.90;;;;;;5022707;28;20467;-82
2023/01/07 02:12:55;;;;;;;1.73;0.83;;;10.60;99.90;;;;;;5027957;28;20435;-82
2023/01/07 02:15:33;;;;;;;0.50;0.40;;;10.50;99.90;;;;;;5027796;28;20474;-82
2023/01/07 02:18:14;;;;;;;0.50;0.40;;;10.50;99.90;;;;;;5021273;28;20498;-83
2023/01/07 02:21:01;;;;;;;0.50;0.40;;;10.50;99.90;;;;;;5022671;28;20493;-84
2023/01/07 02:23:52;;;;;;;0.50;0.40;;;10.40;99.90;;;;;;5028572;28;20446;-81
2023/01/07 02:26:56;;;;;;;0.57;0.50;;;10.50;99.90;;;;;;5026711;28;20483;-84
2023/01/07 02:29:53;;;;;;;0.50;0.40;;;10.40;99.90;;;;;;5027497;28;20466;-83
2023/01/07 02:32:31;;;;;;;1.65;0.75;;;10.30;99.90;;;;;;5030447;28;20455;-81
2023/01/07 02:35:10;;;;;;;0.50;0.40;;;10.20;99.90;;;;;;5029113;28;20180;-83
2023/01/07 02:37:47;;;;;;;0.50;0.40;;;10.10;99.90;;;;;;5030297;28;20411;-82
2023/01/07 02:40:22;;;;;;;0.50;0.50;;;10.10;99.90;;;;;;5031472;28;20446;-82
2023/01/07 02:43:00;;;;;;;0.50;0.40;;;10.10;99.90;;;;;;5020211;28;20282;-83
2023/01/07 02:45:30;;;;;;;0.50;0.40;;;10.10;99.90;;;;;;5015117;28;20199;-80
2023/01/07 02:48:01;;;;;;;1.17;0.95;;;10.10;99.90;;;;;;5016838;28;20537;-82
2023/01/07 02:50:28;;;;;;;0.50;0.50;;;10.10;99.90;;;;;;5017598;28;20207;-83
2023/01/07 02:52:55;;;;;;;0.50;0.40;;;10.10;99.90;;;;;;5020935;28;20278;-82
2023/01/07 02:55:29;;;;;;;0.50;0.40;;;10.10;99.90;;;;;;5019484;28;20820;-80
2023/01/07 02:58:22;;;;;;;0.50;0.40;;;10.10;99.90;;;;;;5020712;28;20498;-80
2023/01/07 03:01:17;;;;;;;1.23;0.65;;;10.10;99.90;;;;;;5020632;28;20226;-81
2023/01/07 03:04:09;;;;;;;0.50;0.40;;;10.10;99.90;;;;;;5020646;28;20283;-84
2023/01/07 03:06:53;;;;;;;1.00;0.60;;;10.10;99.90;;;;;;5017178;28;20192;-83
2023/01/07 03:09:29;;;;;;;0.50;0.40;;;10.20;99.90;;;;;;5020383;28;20438;-81
2023/01/07 03:12:04;;;;;;;0.60;0.50;;;10.20;99.90;;;;;;5020474;28;20283;-82
2023/01/07 03:14:37;;;;;;;0.50;0.40;;;10.20;99.90;;;;;;5019127;28;20283;-84
2023/01/07 03:17:08;;;;;;;0.60;0.60;;;10.20;99.90;;;;;;5020681;28;20204;-81
2023/01/07 03:19:41;;;;;;;0.63;0.63;;;10.20;99.90;;;;;;5020296;28;20180;-82
2023/01/07 03:22:10;;;;;;;0.50;0.40;;;10.20;99.90;;;;;;5020310;28;20216;-80
2023/01/07 03:24:38;;;;;;;0.50;0.40;;;10.20;99.90;;;;;;5018676;28;20470;-81
2023/01/07 03:27:08;;;;;;;0.50;0.30;;;10.20;99.90;;;;;;5019775;28;20198;-83
2023/01/07 03:29:35;;;;;;;0.50;0.40;;;10.20;99.90;;;;;;5020120;28;20446;-82
2023/01/07 03:32:07;;;;;;;1.00;0.50;;;10.20;99.90;;;;;;5019529;28;20562;-82
2023/01/07 03:34:37;;;;;;;0.60;0.60;;;10.20;99.90;;;;;;5018968;28;20494;-82
2023/01/07 03:37:09;;;;;;;1.08;0.77;;;10.20;99.90;;;;;;5020057;28;20212;-82
2023/01/07 03:39:39;;;;;;;0.60;0.40;;;10.10;99.90;;;;;;5019658;28;20189;-81
2023/01/07 03:45:02;;;;;;;0.50;0.40;;;10.10;99.90;;;;;;4977487;28;20571;-82
2023/01/07 03:47:29;;;;;;;0.60;0.60;;;10.10;99.90;;;;;;5007932;28;20534;-82
2023/01/07 03:49:58;;;;;;;0.50;0.40;;;10.00;99.90;;;;;;5019358;28;20200;-80
2023/01/07 03:52:24;;;;;;;0.50;0.40;;;10.00;99.90;;;;;;5020034;28;20769;-81
2023/01/07 03:54:51;;;;;;;0.50;0.50;;;10.00;99.90;;;;;;5018519;28;20287;-82
2023/01/07 03:57:18;;;;;;;0.60;0.50;;;10.00;99.90;;;;;;5019235;28;20219;-81
2023/01/07 03:59:45;;;;;;;0.50;0.43;;;10.00;99.90;;;;;;5018419;28;20239;-82
2023/01/07 04:02:12;;;;;;;0.50;0.40;;;9.90;99.90;;;;;;5019599;28;20254;-82
2023/01/07 04:04:38;;;;;;;0.70;0.50;;;9.90;99.90;;;;;;5018685;28;20721;-83
2023/01/07 04:07:07;;;;;;;1.35;0.50;;;9.80;99.90;;;;;;5019302;28;20195;-81
2023/01/07 04:09:33;;;;;;;0.60;0.50;;;9.80;99.90;;;;;;5019447;28;20214;-81
2023/01/07 04:12:00;;;;;;;0.50;0.40;;;9.70;99.90;;;;;;5019157;28;20216;-83
2023/01/07 04:14:27;;;;;;;0.53;0.40;;;9.70;99.90;;;;;;5018818;28;20260;-82
2023/01/07 04:16:54;;;;;;;0.85;0.70;;;9.70;99.90;;;;;;5018817;28;20474;-83
2023/01/07 04:19:21;;;;;;;0.50;0.40;;;9.60;99.90;;;;;;5019330;28;20294;-82
2023/01/07 04:21:48;;;;;;;0.50;0.40;;;9.70;99.90;;;;;;5019892;28;20295;-81
2023/01/07 04:24:16;;;;;;;0.82;0.55;;;9.60;99.90;;;;;;5018465;28;20711;-80
2023/01/07 04:26:43;;;;;;;0.50;0.40;;;9.70;99.90;;;;;;5019010;28;20215;-82
2023/01/07 04:29:11;;;;;;;0.50;0.40;;;9.70;99.90;;;;;;5018883;28;20202;-82
2023/01/07 04:31:37;;;;;;;0.50;0.40;;;9.70;99.90;;;;;;5018548;28;20227;-81
2023/01/07 04:34:04;;;;;;;0.60;0.60;;;9.70;99.90;;;;;;5017711;28;20219;-83
2023/01/07 04:36:31;;;;;;;0.77;0.55;;;9.70;99.90;;;;;;5018580;28;20220;-83
2023/01/07 04:38:58;;;;;;;0.50;0.40;;;9.70;99.90;;;;;;5020049;28;20206;-81
2023/01/07 04:41:26;;;;;;;0.60;0.52;;;9.70;99.90;;;;;;5018159;28;20247;-82
2023/01/07 04:43:53;;;;;;;0.50;0.40;;;9.80;99.90;;;;;;5018625;28;20203;-82
2023/01/07 04:46:20;;;;;;;2.78;0.50;;;9.80;99.90;;;;;;5017667;28;20198;-82
2023/01/07 04:48:46;;;;;;;0.50;0.40;;;9.80;99.90;;;;;;5018324;28;20246;-82
2023/01/07 04:51:13;;;;;;;0.50;0.40;;;9.90;99.90;;;;;;5018364;28;20291;-83
2023/01/07 04:53:40;;;;;;;1.05;1.02;;;9.90;99.90;;;;;;5018864;28;20196;-81
2023/01/07 04:56:08;;;;;;;0.60;0.50;;;9.80;99.90;;;;;;5019253;28;20216;-82
2023/01/07 04:58:36;;;;;;;0.50;0.40;;;9.80;99.90;;;;;;5023941;28;20204;-82
2023/01/07 05:01:03;;;;;;;0.60;0.40;;;9.90;99.90;;;;;;5023747;28;20528;-83
2023/01/07 05:03:33;;;;;;;0.50;0.40;;;9.90;99.90;;;;;;5023514;28;20196;-84
2023/01/07 05:06:00;;;;;;;1.00;0.88;;;10.00;99.90;;;;;;5021099;28;20530;-84
2023/01/07 05:08:27;;;;;;;0.50;0.40;;;10.00;99.90;;;;;;5023221;28;20225;-82
2023/01/07 05:10:54;;;;;;;0.60;0.50;;;10.00;99.90;;;;;;5024534;28;20206;-84
2023/01/07 05:13:23;;;;;;;0.50;0.47;;;10.00;99.90;;;;;;5023175;28;20438;-80
2023/01/07 05:15:51;;;;;;;0.50;0.40;;;10.00;99.90;;;;;;5021965;28;20439;-82
2023/01/07 05:18:18;;;;;;;0.50;0.40;;;10.00;99.90;;;;;;5022107;28;20562;-82
2023/01/07 05:20:46;;;;;;;0.50;0.40;;;10.00;99.90;;;;;;5021770;28;20226;-81
2023/01/07 05:23:13;;;;;;;2.45;2.05;;;10.00;99.90;;;;;;5023509;28;20235;-83
2023/01/07 05:25:40;;;;;;;0.50;0.40;;;10.00;99.90;;;;;;5019374;28;20279;-82
2023/01/07 05:28:07;;;;;;;0.50;0.40;;;10.00;99.90;;;;;;5017490;28;20303;-81
2023/01/07 05:30:34;;;;;;;0.50;0.40;;;10.00;99.90;;;;;;5017224;28;20465;-81
2023/01/07 05:33:05;;;;;;;0.83;0.70;;;10.00;99.90;;;;;;5017882;28;20526;-80
2023/01/07 05:35:32;;;;;;;3.30;0.80;;;10.00;99.90;;;;;;5016231;28;20435;-81
2023/01/07 05:37:59;;;;;;;0.50;0.40;;;10.00;99.90;;;;;;5016790;28;20852;-82
2023/01/07 05:40:26;;;;;;;0.50;0.40;;;9.90;99.90;;;;;;5016892;28;20443;-80
2023/01/07 05:42:53;;;;;;;2.93;0.93;;;9.90;99.90;;;;;;5016567;28;20442;-82
2023/01/07 05:45:20;;;;;;;0.60;0.60;;;9.90;99.90;;;;;;5015935;28;21003;-80
2023/01/07 05:47:47;;;;;;;0.50;0.40;;;9.80;99.90;;;;;;5015990;28;20195;-83
2023/01/07 05:50:16;;;;;;;0.75;0.75;;;9.80;99.90;;;;;;5016851;28;20202;-81
2023/01/07 05:52:42;;;;;;;0.53;0.47;;;9.80;99.90;;;;;;5016933;28;20264;-83
2023/01/07 05:55:09;;;;;;;0.50;0.40;;;9.80;99.90;;;;;;5016140;28;20443;-80
2023/01/07 05:57:36;;;;;;;0.50;0.40;;;9.80;99.90;;;;;;5016548;28;20562;-81
2023/01/07 06:00:04;;;;;;;0.50;0.40;;;9.80;99.90;;;;;;5016574;28;20526;-81
2023/01/07 06:02:31;;;;;;;1.43;0.90;;;9.70;99.90;;;;;;5016101;28;20469;-80
2023/01/07 06:04:58;;;;;;;0.50;0.40;;;9.70;99.90;;;;;;5016149;28;20538;-82
2023/01/07 06:07:26;;;;;;;1.23;0.73;;;9.70;99.90;;;;;;5016193;28;20255;-82
2023/01/07 06:09:53;;;;;;;0.70;0.70;;;9.70;99.90;;;;;;5016391;28;20295;-81
2023/01/07 06:12:20;;;;;;;1.10;1.00;;;9.60;99.90;;;;;;5016628;28;20220;-83
2023/01/07 06:14:46;;;;;;;0.50;0.40;;;9.60;99.90;;;;;;5015874;28;20459;-81
2023/01/07 06:17:13;;;;;;;1.90;0.80;;;9.60;99.90;;;;;;5016391;28;20311;-81
2023/01/07 06:19:40;;;;;;;1.40;0.98;;;9.60;99.90;;;;;;5015946;28;20458;-81
2023/01/07 06:22:07;;;;;;;0.97;0.97;;;9.60;99.90;;;;;;5016735;28;20246;-81
2023/01/07 06:24:35;;;;;;;1.35;0.63;;;9.60;99.90;;;;;;5016064;28;20474;-82
2023/01/07 06:27:02;;;;;;;0.70;0.70;;;9.50;99.90;;;;;;5018733;28;20230;-80
2023/01/07 06:29:29;;;;;;;0.73;0.73;;;9.50;99.90;;;;;;5021087;28;20299;-82
2023/01/07 06:31:56;;;;;;;0.50;0.50;;;9.50;99.90;;;;;;5020502;28;20690;-81
2023/01/07 06:34:23;;;;;;;0.60;0.50;;;9.40;99.90;;;;;;5019328;28;20442;-82
2023/01/07 06:36:49;;;;;;;0.50;0.40;;;9.40;99.90;;;;;;5020113;28;20585;-82
2023/01/07 06:39:16;;;;;;;1.83;1.73;;;9.40;99.90;;;;;;5020492;28;20312;-82
2023/01/07 06:41:44;;;;;;;0.60;0.50;;;9.40;99.90;;;;;;5020983;28;20872;-82
2023/01/07 06:44:11;;;;;;;2.87;0.70;;;9.40;99.90;;;;;;5019563;28;21015;-82
2023/01/07 06:46:38;;;;;;;0.70;0.70;;;9.40;99.90;;;;;;5019088;28;20510;-81
2023/01/07 06:49:05;;;;;;;0.50;0.50;;;9.40;99.90;;;;;;5020274;28;20439;-80
2023/01/07 06:51:32;;;;;;;1.17;1.07;;;9.40;99.90;;;;;;5019817;28;20270;-82
2023/01/07 06:53:58;;;;;;;0.50;0.40;;;9.30;99.90;;;;;;5018369;28;20477;-80
2023/01/07 06:56:25;;;;;;;0.60;0.40;;;9.30;99.90;;;;;;5019011;28;20264;-82
2023/01/07 06:58:53;;;;;;;0.93;0.93;;;9.30;99.90;;;;;;5018813;28;20192;-82
2023/01/07 07:01:20;;;;;;;0.50;0.30;;;9.30;99.90;;;;;;5020597;28;20230;-82
2023/01/07 07:03:47;;;;;;;0.60;0.57;;;9.30;99.90;;;;;;5020303;28;20200;-81
2023/01/07 07:06:14;;;;;;;0.50;0.40;;;9.30;99.90;;;;;;5019298;28;20203;-82
2023/01/07 07:08:41;;;;;;;2.30;2.20;;;9.40;99.90;;;;;;5020441;28;20195;-81
2023/01/07 07:11:07;;;;;;;0.50;0.40;;;9.40;99.90;;;;;;5021950;28;20920;-81
2023/01/07 07:13:34;;;;;;;1.02;0.70;;;9.50;99.90;;;;;;5020365;28;20437;-81
2023/01/07 07:16:03;;;;;;;0.70;0.70;;;9.60;99.90;;;;;;5021445;28;20279;-82
2023/01/07 07:18:30;;;;;;;0.50;0.40;;;9.60;99.90;;;;;;5021415;28;20471;-80
2023/01/07 07:20:57;;;;;;;0.60;0.60;;;9.70;99.90;;;;;;5020774;28;20216;-80
2023/01/07 07:23:24;;;;;;;0.93;0.60;;;9.70;99.90;;;;;;5020520;28;20204;-80
2023/01/07 07:25:51;;;;;;;4.40;0.60;;;9.80;99.90;;;;;;5020715;28;20259;-79
2023/01/07 07:28:18;;;;;;;0.50;0.43;;;9.90;99.90;;;;;;5019790;28;20196;-80
2023/01/07 07:30:45;;;;;;;0.70;0.70;;;9.90;99.90;;;;;;5019815;28;20466;-79
2023/01/07 07:33:13;;;;;;;0.50;0.50;;;9.90;99.90;;;;;;5020034;28;20697;-80
2023/01/07 07:35:40;;;;;;;0.50;0.40;;;10.00;99.90;;;;;;5020187;28;20226;-80
2023/01/07 07:38:07;;;;;;;0.60;0.50;;;10.00;99.90;;;;;;5021591;28;20232;-80
2023/01/07 07:40:34;;;;;;;0.70;0.60;;;10.00;99.90;;;;;;5020448;28;20442;-79
2023/01/07 07:43:01;;;;;;;0.50;0.40;;;10.00;99.90;;;;;;5022135;28;20466;-80
2023/01/07 07:45:28;;;;;;;1.10;1.00;;;10.00;99.90;;;;;;5021187;28;20255;-80
2023/01/07 07:47:55;;;;;;;0.60;0.60;;;10.00;99.90;;;;;;5020573;28;20965;-80
2023/01/07 07:50:23;;;;;;;3.80;1.90;;;10.10;99.90;;;;;;5020786;28;20866;-78
2023/01/07 07:52:50;;;;;;;0.95;0.95;;;10.10;99.90;;;;;;5021910;28;20461;-79
2023/01/07 07:55:17;;;;;;;1.27;0.60;;;10.10;99.90;;;;;;5021855;28;20227;-79
2023/01/07 07:57:43;;;;;;;0.50;0.40;;;10.20;99.90;;;;;;5021139;28;20280;-81
2023/01/07 08:00:12;;;;;;;0.50;0.40;;;10.20;99.90;;;;;;5022522;28;20450;-81
2023/01/07 08:02:38;;;;;;;0.50;0.50;;;10.20;99.90;;;;;;5021741;28;20490;-80
2023/01/07 08:05:07;;;;;;;0.50;0.30;;;10.20;99.90;;;;;;5022066;28;20465;-79
2023/01/07 08:07:35;;;;;;;0.50;0.40;;;10.20;99.90;;;;;;5022806;28;20223;-80
2023/01/07 08:10:02;;;;;;;0.50;0.40;;;10.30;99.90;;;;;;5021902;28;20471;-80
2023/01/07 08:12:29;;;;;;;0.50;0.40;;;10.30;99.90;;;;;;5017412;28;20216;-81
2023/01/07 08:14:55;;;;;;;0.50;0.40;;;10.30;99.90;;;;;;5021433;28;20204;-80
2023/01/07 08:17:22;;;;;;;0.68;0.43;;;10.30;99.90;;;;;;5022018;28;20943;-80
2023/01/07 08:19:49;;;;;;;0.50;0.50;;;10.30;99.90;;;;;;5022033;28;20290;-80
2023/01/07 08:22:16;;;;;;;0.63;0.63;;;10.30;99.90;;;;;;5018383;28;20659;-78
2023/01/07 08:24:44;;;;;;;0.50;0.50;;;10.30;99.90;;;;;;5016521;28;20192;-78
2023/01/07 08:27:13;;;;;;;0.50;0.40;;;10.30;99.90;;;;;;5020067;28;21035;-81
2023/01/07 08:29:40;;;;;;;0.50;0.40;;;10.40;99.90;;;;;;5020505;28;20447;-78
2023/01/07 08:32:07;;;;;;;0.50;0.40;;;10.40;99.90;;;;;;5022209;28;20223;-81
2023/01/07 08:34:34;;;;;;;0.60;0.50;;;10.40;99.90;;;;;;5018279;28;20207;-82
2023/01/07 08:37:01;;;;;;;0.50;0.40;;;10.40;99.90;;;;;;5017175;28;20453;-80
2023/01/07 08:39:27;;;;;;;0.50;0.40;;;10.50;99.90;;;;;;5015039;28;20290;-81
2023/01/07 08:41:56;;;;;;;2.35;0.88;;;10.50;99.90;;;;;;5018021;28;20314;-82
2023/01/07 08:44:22;;;;;;;0.50;0.40;;;10.50;99.90;;;;;;5017412;28;20287;-82
2023/01/07 08:46:49;;;;;;;0.53;0.47;;;10.50;99.90;;;;;;5032506;28;20259;-79
2023/01/07 08:49:16;;;;;;;0.73;0.73;;;10.50;99.90;;;;;;5037663;28;20426;-83
2023/01/07 08:51:43;;;;;;;0.70;0.70;;;10.50;99.90;;;;;;5027834;28;20554;-81
2023/01/07 08:54:10;;;;;;;0.60;0.60;;;10.50;99.90;;;;;;5017977;28;20450;-82
2023/01/07 08:56:36;;;;;;;0.50;0.40;;;10.50;99.90;;;;;;5018329;28;20530;-82
2023/01/07 08:59:05;;;;;;;0.50;0.40;;;10.60;99.90;;;;;;5017919;28;20222;-82
2023/01/07 09:01:32;;;;;;;0.57;0.57;;;10.50;99.90;;;;;;5018294;28;20303;-81
2023/01/07 09:03:58;;;;;;;0.50;0.40;;;10.60;99.90;;;;;;5016945;28;20525;-80
2023/01/07 09:06:25;;;;;;;1.07;0.97;;;10.50;99.90;;;;;;5040639;28;20450;-80
2023/01/07 09:08:52;;;;;;;1.80;1.70;;;10.50;99.90;;;;;;5039651;28;20466;-81
2023/01/07 09:11:19;;;;;;;0.80;0.80;;;10.50;99.90;;;;;;5039153;28;20468;-80
2023/01/07 09:13:46;;;;;;;0.50;0.40;;;10.50;99.90;;;;;;5039732;28;20436;-79
2023/01/07 09:16:14;;;;;;;0.60;0.52;;;10.50;99.90;;;;;;5038619;28;20206;-80
2023/01/07 09:18:41;;;;;;;0.50;0.40;;;10.50;99.90;;;;;;5038760;28;20215;-81
2023/01/07 09:21:08;;;;;;;0.60;0.57;;;10.50;99.90;;;;;;5040072;28;20546;-79
2023/01/07 09:23:34;;;;;;;0.50;0.40;;;10.50;99.90;;;;;;5039059;28;20478;-79
2023/01/07 09:26:02;;;;;;;0.50;0.50;;;10.50;99.90;;;;;;5039692;28;20967;-81
2023/01/07 09:28:28;;;;;;;0.50;0.38;;;10.60;99.90;;;;;;5042210;28;20254;-82
2023/01/07 09:30:55;;;;;;;2.83;0.80;;;10.60;99.90;;;;;;5046645;28;20318;-81
2023/01/07 09:33:24;;;;;;;0.50;0.40;;;10.60;99.90;;;;;;5027242;28;20517;-81
2023/01/07 09:35:51;;;;;;;1.10;0.53;;;10.60;99.90;;;;;;5016066;28;20470;-82
2023/01/07 09:38:17;;;;;;;0.60;0.50;;;10.60;99.90;;;;;;5023729;28;20506;-81
2023/01/07 09:40:45;;;;;;;0.50;0.30;;;10.60;99.90;;;;;;5022465;28;20964;-81
2023/01/07 09:43:16;;;;;;;0.60;0.40;;;10.60;99.90;;;;;;5016778;28;20185;-82
2023/01/07 09:45:47;;;;;;;0.50;0.40;;;10.70;99.90;;;;;;5003513;28;20439;-81
2023/01/07 09:48:20;;;;;;;0.50;0.40;;;10.60;99.90;;;;;;5007125;28;20435;-82
2023/01/07 09:50:54;;;;;;;0.50;0.40;;;10.60;99.90;;;;;;5004320;28;20459;-80
2023/01/07 09:53:26;;;;;;;0.50;0.40;;;10.70;99.90;;;;;;5003435;28;20427;-82
2023/01/07 09:55:55;;;;;;;0.60;0.40;;;10.70;99.90;;;;;;5000518;28;20251;-82
2023/01/07 09:58:22;;;;;;;0.65;0.63;;;10.70;99.90;;;;;;5003669;28;20470;-81
2023/01/07 10:01:06;;;;;;;0.70;0.70;;;10.80;99.90;;;;;;5001028;28;20220;-81
2023/01/07 10:03:46;;;;;;;1.00;0.50;;;10.80;99.90;;;;;;5003742;28;20500;-80
2023/01/07 10:06:20;;;;;;;0.50;0.40;;;10.80;99.90;;;;;;5002002;28;20192;-81
2023/01/07 10:09:02;;;;;;;0.50;0.40;;;10.90;99.90;;;;;;5013683;28;20275;-81
2023/01/07 10:11:44;;;;;;;0.50;0.40;;;10.90;99.90;;;;;;5019182;28;20469;-81
2023/01/07 10:14:33;;;;;;;0.50;0.40;;;11.00;99.90;;;;;;5023112;28;20940;-83
2023/01/07 10:17:08;;;;;;;0.87;0.87;;;11.00;99.90;;;;;;5022607;28;20191;-81
2023/01/07 10:19:42;;;;;;;0.50;0.40;;;11.00;99.90;;;;;;5019315;28;20454;-82
2023/01/07 10:22:19;;;;;;;0.90;0.90;;;11.10;99.90;;;;;;5018605;28;20458;-82
2023/01/07 10:24:50;;;;;;;0.50;0.40;;;11.10;99.90;;;;;;5016215;28;20880;-82
2023/01/07 10:27:24;;;;;;;0.50;0.40;;;11.30;99.90;;;;;;5017208;28;20506;-82
2023/01/07 10:29:55;;;;;;;0.50;0.37;;;11.50;99.90;;;;;;5016885;28;20434;-82
2023/01/07 10:32:28;;;;;;;0.50;0.40;;;11.90;99.90;;;;;;5015732;28;20459;-82
2023/01/07 10:34:58;;;;;;;0.50;0.40;;;12.20;99.90;;;;;;5015901;28;20861;-82
2023/01/07 10:37:30;;;;;;;0.50;0.40;;;12.60;99.90;;;;;;5016391;28;21027;-81
2023/01/07 10:40:06;;;;;;;0.50;0.40;;;12.80;99.90;;;;;;5016101;28;20429;-81
2023/01/07 10:42:37;;;;;;;0.60;0.53;;;13.10;99.90;;;;;;5020080;28;21046;-81
2023/01/07 10:45:36;;;;;;;0.50;0.37;;;13.20;99.90;;;;;;4995970;28;20436;-80
2023/01/07 10:48:39;;;;;;;1.10;0.77;;;13.40;99.90;;;;;;4997844;28;20467;-81
2023/01/07 10:51:17;;;;;;;0.50;0.43;;;13.50;99.90;;;;;;5004095;28;20450;-83
2023/01/07 10:53:56;;;;;;;0.60;0.50;;;13.40;99.90;;;;;;5017282;28;20443;-79
2023/01/07 10:56:29;;;;;;;0.80;0.80;;;13.20;99.90;;;;;;5009906;28;20503;-82
2023/01/07 10:58:56;;;;;;;0.50;0.40;;;13.30;99.90;;;;;;5011864;28;20482;-83
2023/01/07 11:01:27;;;;;;;0.60;0.40;;;13.30;99.90;;;;;;5019904;28;20486;-81
2023/01/07 11:03:56;;;;;;;0.50;0.40;;;13.40;99.90;;;;;;5018927;28;20482;-79
2023/01/07 11:06:34;;;;;;;0.50;0.40;;;13.30;99.90;;;;;;5020172;28;20509;-82
2023/01/07 11:09:04;;;;;;;1.17;0.50;;;13.50;99.90;;;;;;5018722;28;20479;-82
2023/01/07 11:11:32;;;;;;;0.60;0.50;;;13.80;99.90;;;;;;5018108;28;20478;-81
2023/01/07 11:14:01;;;;;;;0.50;0.40;;;13.90;99.90;;;;;;5021395;28;20447;-80
2023/01/07 11:16:32;;;;;;;3.50;0.83;;;13.80;99.90;;;;;;5022807;28;20478;-81
2023/01/07 11:19:03;;;;;;;0.50;0.50;;;13.60;99.90;;;;;;5021746;28;20530;-81
2023/01/07 11:21:35;;;;;;;0.73;0.53;;;13.30;99.90;;;;;;5021106;28;20529;-80
2023/01/07 11:24:30;;;;;;;0.50;0.40;;;13.40;99.90;;;;;;5018974;28;20521;-80
2023/01/07 11:27:11;;;;;;;0.80;0.67;;;13.20;99.90;;;;;;5020887;28;20427;-79
2023/01/07 11:29:43;;;;;;;0.97;0.83;;;13.00;99.90;;;;;;5007728;28;20430;-80
2023/01/07 11:32:20;;;;;;;0.50;0.40;;;12.90;99.90;;;;;;5000313;28;20554;-80
2023/01/07 11:34:55;;;;;;;1.27;0.90;;;13.20;99.90;;;;;;5000523;28;20462;-83
2023/01/07 11:37:32;;;;;;;0.50;0.50;;;13.10;99.90;;;;;;5002174;28;20450;-82
2023/01/07 11:40:03;;;;;;;0.80;0.63;;;13.00;99.90;;;;;;4999673;28;20460;-81
2023/01/07 11:42:39;;;;;;;0.50;0.50;;;12.90;99.90;;;;;;5002651;28;20499;-82
2023/01/07 11:45:13;;;;;;;0.63;0.63;;;12.60;99.90;;;;;;5000409;28;20530;-81
2023/01/07 11:47:45;;;;;;;0.90;0.63;;;12.40;99.90;;;;;;5003155;28;20427;-81
2023/01/07 11:50:22;;;;;;;0.50;0.50;;;12.30;99.90;;;;;;5022454;28;20438;-81
2023/01/07 11:52:56;;;;;;;0.73;0.73;;;12.20;99.90;;;;;;5022629;28;20439;-81
2023/01/07 11:55:25;;;;;;;0.70;0.70;;;12.20;99.90;;;;;;5023677;28;20434;-81
2023/01/07 11:57:56;;;;;;;0.70;0.53;;;12.10;99.90;;;;;;5021891;28;20481;-81
2023/01/07 12:00:24;;;;;;;0.50;0.40;;;12.20;99.90;;;;;;5025102;28;20526;-82
2023/01/07 12:03:02;;;;;;;0.60;0.60;;;12.40;99.90;;;;;;5023731;28;21004;-80
2023/01/07 12:05:29;;;;;;;0.90;0.90;;;12.40;99.90;;;;;;5003804;28;20468;-81
2023/01/07 12:07:57;;;;;;;3.07;1.23;;;12.50;99.90;;;;;;5021955;28;20458;-79
2023/01/07 12:10:32;;;;;;;0.53;0.47;;;12.60;99.90;;;;;;5029478;28;20443;-82
2023/01/07 12:13:01;;;;;;;0.60;0.40;;;12.90;99.90;;;;;;5031006;28;20427;-82
2023/01/07 12:15:30;;;;;;;0.83;0.83;;;13.00;99.90;;;;;;5023921;28;20859;-79
2023/01/07 12:18:30;;;;;;;1.20;1.10;;;13.10;99.90;;;;;;5020119;28;20535;-79
2023/01/07 12:21:24;;;;;;;1.00;0.80;;;12.90;99.90;;;;;;5027870;28;20485;-83
2023/01/07 12:24:04;;;;;;;0.50;0.40;;;12.80;99.90;;;;;;5029176;28;20462;-82
2023/01/07 12:26:42;;;;;;;0.60;0.50;;;12.80;99.90;;;;;;5029003;28;20454;-84
2023/01/07 12:29:21;;;;;;;0.80;0.80;;;12.70;99.90;;;;;;5030960;28;20962;-83
2023/01/07 12:32:02;;;;;;;0.50;0.40;;;12.60;99.90;;;;;;5029540;28;20466;-83
2023/01/07 12:34:37;;;;;;;1.60;0.77;;;12.50;99.90;;;;;;5028733;28;20443;-84
2023/01/07 12:37:10;;;;;;;0.57;0.53;;;12.50;99.90;;;;;;5030253;28;20449;-84
2023/01/07 12:39:40;;;;;;;0.67;0.50;;;12.40;99.90;;;;;;5029735;28;20539;-82
2023/01/07 12:42:13;;;;;;;0.70;0.40;;;12.40;99.90;;;;;;5029998;28;20530;-82
2023/01/07 12:44:44;;;;;;;1.33;0.90;;;12.40;99.90;;;;;;5030142;28;20420;-82
2023/01/07 12:47:16;;;;;;;1.13;1.03;;;12.50;99.90;;;;;;5030305;28;20474;-82
2023/01/07 12:49:49;;;;;;;0.63;0.63;;;12.50;99.90;;;;;;5030558;28;20445;-84
2023/01/07 12:52:20;;;;;;;0.73;0.67;;;12.60;99.90;;;;;;5030534;28;20467;-83
2023/01/07 12:54:53;;;;;;;1.70;1.00;;;12.50;99.90;;;;;;5029967;28;20427;-84
2023/01/07 12:57:27;;;;;;;0.60;0.60;;;12.50;99.90;;;;;;5030231;28;20459;-81
2023/01/07 13:00:01;;;;;;;0.90;0.40;;;12.60;99.90;;;;;;5030362;28;20498;-83
2023/01/07 13:02:34;;;;;;;0.70;0.60;;;12.60;99.90;;;;;;5036651;28;20450;-84
2023/01/07 13:05:10;;;;;;;0.50;0.40;;;12.70;99.90;;;;;;5037222;28;20415;-82
2023/01/07 13:07:45;;;;;;;0.50;0.40;;;12.60;99.90;;;;;;5030635;28;20418;-83